Time;durP1;ratioP1;P1;durP2;ratioP2;P2;SDS_P1;SDS_P2;PMS_P1;PMS_P2;Temp;Humidity;BMP_temperature;BMP_pressure;BME280_temperature;BME280_humidity;BME280_pressure;Samples;Min_cycle;Max_cycle;Signal;HPM_P1;HPM_P2
2023/09/26 00:00:38;;;;;;;;;;;;;;;;;;5075115;28;19952;-25
2023/09/26 00:03:04;;;;;;;;;;;;;;;;;;5074913;28;19995;-24
2023/09/26 00:05:30;;;;;;;;;;;;;;;;;;5074937;28;20007;-22
2023/09/26 00:07:56;;;;;;;;;;;;;;;;;;5075209;28;19974;-24
2023/09/26 00:10:22;;;;;;;;;;;;;;;;;;5074948;28;19916;-22
2023/09/26 00:12:48;;;;;;;;;;;;;;;;;;5074738;28;19960;-26
2023/09/26 00:15:14;;;;;;;;;;;;;;;;;;5074823;28;19908;-22
2023/09/26 00:17:40;;;;;;;;;;;;;;;;;;5074867;28;19916;-22
2023/09/26 00:20:26;;;;;;;;;;;;;;;;;;5075106;28;19951;-26
2023/09/26 00:22:52;;;;;;;;;;;;;;;;;;5074670;28;19912;-25
2023/09/26 00:25:18;;;;;;;;;;;;;;;;;;5075087;28;19909;-27
2023/09/26 00:27:44;;;;;;;;;;;;;;;;;;5075000;28;20387;-22
2023/09/26 00:30:10;;;;;;;;;;;;;;;;;;5074749;28;19908;-29
2023/09/26 00:32:39;;;;;;;;;;;;;;;;;;5074543;28;20003;-25
2023/09/26 00:35:08;;;;;;;;;;;;;;;;;;5074916;28;19939;-26
2023/09/26 00:37:34;;;;;;;;;;;;;;;;;;5074652;28;20003;-22
2023/09/26 00:40:00;;;;;;;;;;;;;;;;;;5074970;28;20341;-25
2023/09/26 00:42:26;;;;;;;;;;;;;;;;;;5073473;28;19908;-23
2023/09/26 00:44:52;;;;;;;;;;;;;;;;;;5074905;28;19908;-25
2023/09/26 00:47:18;;;;;;;;;;;;;;;;;;5074508;28;20366;-27
2023/09/26 00:49:44;;;;;;;;;;;;;;;;;;5074509;28;19951;-23
2023/09/26 00:52:09;;;;;;;;;;;;;;;;;;5074426;28;20216;-28
2023/09/26 00:54:36;;;;;;;;;;;;;;;;;;5075282;28;19995;-22
2023/09/26 00:57:01;;;;;;;;;;;;;;;;;;5078530;28;19909;-25
2023/09/26 00:59:28;;;;;;;;;;;;;;;;;;5078714;28;19912;-24
2023/09/26 01:01:54;;;;;;;;;;;;;;;;;;5078329;28;19920;-30
2023/09/26 01:04:20;;;;;;;;;;;;;;;;;;5078185;28;19916;-25
2023/09/26 01:06:46;;;;;;;;;;;;;;;;;;5078416;28;19948;-23
2023/09/26 01:09:12;;;;;;;;;;;;;;;;;;5078286;28;19920;-29
2023/09/26 01:11:38;;;;;;;;;;;;;;;;;;5078242;28;19990;-23
2023/09/26 01:14:04;;;;;;;;;;;;;;;;;;5078085;28;20052;-24
2023/09/26 01:16:30;;;;;;;;;;;;;;;;;;5078366;28;19935;-25
2023/09/26 01:18:56;;;;;;;;;;;;;;;;;;5078404;28;19912;-25
2023/09/26 01:21:23;;;;;;;;;;;;;;;;;;5078044;28;20349;-27
2023/09/26 01:23:49;;;;;;;;;;;;;;;;;;5078155;28;19908;-23
2023/09/26 01:26:15;;;;;;;;;;;;;;;;;;5077848;28;19908;-29
2023/09/26 01:28:41;;;;;;;;;;;;;;;;;;5077902;28;19915;-23
2023/09/26 01:31:07;;;;;;;;;;;;;;;;;;5078140;28;19919;-24
2023/09/26 01:33:33;;;;;;;;;;;;;;;;;;5077658;28;19927;-26
2023/09/26 01:35:58;;;;;;;;;;;;;;;;;;5078031;28;19982;-25
2023/09/26 01:38:25;;;;;;;;;;;;;;;;;;5077677;28;20321;-29
2023/09/26 01:40:51;;;;;;;;;;;;;;;;;;5077668;28;19908;-31
2023/09/26 01:43:17;;;;;;;;;;;;;;;;;;5077531;28;19919;-32
2023/09/26 01:45:43;;;;;;;;;;;;;;;;;;5077638;28;19912;-27
2023/09/26 01:48:09;;;;;;;;;;;;;;;;;;5078058;28;19940;-24
2023/09/26 01:50:35;;;;;;;;;;;;;;;;;;5077843;28;20213;-27
2023/09/26 01:53:01;;;;;;;;;;;;;;;;;;5077303;28;19913;-25
2023/09/26 01:55:27;;;;;;;;;;;;;;;;;;5077663;28;19912;-21
2023/09/26 01:57:53;;;;;;;;;;;;;;;;;;5077614;28;19912;-24
2023/09/26 02:00:19;;;;;;;;;;;;;;;;;;5077495;28;19999;-28
2023/09/26 02:02:45;;;;;;;;;;;;;;;;;;5077365;28;19912;-25
2023/09/26 02:05:11;;;;;;;;;;;;;;;;;;5077021;28;20007;-24
2023/09/26 02:07:37;;;;;;;;;;;;;;;;;;5076775;28;19916;-22
2023/09/26 02:10:04;;;;;;;;;;;;;;;;;;5077191;28;19912;-27
2023/09/26 02:12:30;;;;;;;;;;;;;;;;;;5077162;28;19917;-26
2023/09/26 02:14:56;;;;;;;;;;;;;;;;;;5077065;28;20367;-25
2023/09/26 02:17:21;;;;;;;;;;;;;;;;;;5077046;28;19915;-22
2023/09/26 02:19:47;;;;;;;;;;;;;;;;;;5077250;28;19920;-28
2023/09/26 02:22:13;;;;;;;;;;;;;;;;;;5076821;28;20286;-22
2023/09/26 02:24:39;;;;;;;;;;;;;;;;;;5075905;28;19916;-25
2023/09/26 02:27:05;;;;;;;;;;;;;;;;;;5077094;28;19999;-25
2023/09/26 02:29:31;;;;;;;;;;;;;;;;;;5077060;28;20243;-21
2023/09/26 02:31:57;;;;;;;;;;;;;;;;;;5076960;28;19912;-25
2023/09/26 02:34:23;;;;;;;;;;;;;;;;;;5077065;28;20457;-22
2023/09/26 02:36:49;;;;;;;;;;;;;;;;;;5076743;28;19911;-24
2023/09/26 02:39:15;;;;;;;;;;;;;;;;;;5076894;28;19916;-21
2023/09/26 02:41:41;;;;;;;;;;;;;;;;;;5076568;28;19958;-26
2023/09/26 02:44:07;;;;;;;;;;;;;;;;;;5076779;28;19909;-22
2023/09/26 02:46:33;;;;;;;;;;;;;;;;;;5076437;28;19908;-28
2023/09/26 02:49:03;;;;;;;;;;;;;;;;;;5076468;28;20004;-26
2023/09/26 02:51:29;;;;;;;;;;;;;;;;;;5076512;28;19915;-23
2023/09/26 02:53:55;;;;;;;;;;;;;;;;;;5076244;28;20350;-25
2023/09/26 02:56:21;;;;;;;;;;;;;;;;;;5076275;28;20251;-26
2023/09/26 02:58:47;;;;;;;;;;;;;;;;;;5076147;28;19908;-22
2023/09/26 03:01:13;;;;;;;;;;;;;;;;;;5076177;28;19912;-24
2023/09/26 03:03:39;;;;;;;;;;;;;;;;;;5076278;28;20019;-26
2023/09/26 03:06:05;;;;;;;;;;;;;;;;;;5075883;28;19959;-24
2023/09/26 03:08:31;;;;;;;;;;;;;;;;;;5075098;28;19920;-24
2023/09/26 03:10:57;;;;;;;;;;;;;;;;;;5076009;28;19909;-22
2023/09/26 03:13:23;;;;;;;;;;;;;;;;;;5075827;28;19917;-28
2023/09/26 03:15:48;;;;;;;;;;;;;;;;;;5074917;28;19908;-29
2023/09/26 03:18:15;;;;;;;;;;;;;;;;;;5075105;28;19909;-23
2023/09/26 03:20:41;;;;;;;;;;;;;;;;;;5076042;28;19908;-20
2023/09/26 03:23:07;;;;;;;;;;;;;;;;;;5075606;28;19916;-25
2023/09/26 03:25:33;;;;;;;;;;;;;;;;;;5075958;28;19913;-24
2023/09/26 03:27:59;;;;;;;;;;;;;;;;;;5075667;28;19921;-22
2023/09/26 03:30:25;;;;;;;;;;;;;;;;;;5075601;28;19908;-27
2023/09/26 03:32:50;;;;;;;;;;;;;;;;;;5075719;28;19919;-22
2023/09/26 03:35:16;;;;;;;;;;;;;;;;;;5075530;28;20310;-23
2023/09/26 03:37:42;;;;;;;;;;;;;;;;;;5075409;28;19944;-22
2023/09/26 03:40:08;;;;;;;;;;;;;;;;;;5075366;28;19975;-27
2023/09/26 03:42:34;;;;;;;;;;;;;;;;;;5075476;28;19909;-25
2023/09/26 03:45:00;;;;;;;;;;;;;;;;;;5075538;28;19931;-24
2023/09/26 03:47:26;;;;;;;;;;;;;;;;;;5075198;28;19909;-22
2023/09/26 03:49:52;;;;;;;;;;;;;;;;;;5075052;28;20228;-26
2023/09/26 03:52:18;;;;;;;;;;;;;;;;;;5073909;28;19970;-26
2023/09/26 03:54:44;;;;;;;;;;;;;;;;;;5075222;28;20334;-25
2023/09/26 03:57:10;;;;;;;;;;;;;;;;;;5074947;28;19908;-25
2023/09/26 03:59:36;;;;;;;;;;;;;;;;;;5074842;28;20374;-25
2023/09/26 04:02:02;;;;;;;;;;;;;;;;;;5074791;28;19909;-24
2023/09/26 04:04:28;;;;;;;;;;;;;;;;;;5074831;28;20012;-23
2023/09/26 04:06:54;;;;;;;;;;;;;;;;;;5075140;28;19915;-25
2023/09/26 04:09:20;;;;;;;;;;;;;;;;;;5074451;28;19909;-22
2023/09/26 04:11:46;;;;;;;;;;;;;;;;;;5074195;28;19927;-27
2023/09/26 04:14:12;;;;;;;;;;;;;;;;;;5074911;28;19909;-23
2023/09/26 04:16:38;;;;;;;;;;;;;;;;;;5074809;28;20038;-30
2023/09/26 04:19:04;;;;;;;;;;;;;;;;;;5074604;28;20343;-22
2023/09/26 04:21:30;;;;;;;;;;;;;;;;;;5073583;28;19915;-26
2023/09/26 04:23:56;;;;;;;;;;;;;;;;;;5074354;28;19909;-22
2023/09/26 04:26:23;;;;;;;;;;;;;;;;;;5074422;28;19904;-23
2023/09/26 04:28:49;;;;;;;;;;;;;;;;;;5074263;28;19915;-21
2023/09/26 04:31:16;;;;;;;;;;;;;;;;;;5074058;28;19991;-27
2023/09/26 04:33:42;;;;;;;;;;;;;;;;;;5074200;28;19912;-26
2023/09/26 04:36:08;;;;;;;;;;;;;;;;;;5073480;28;19919;-27
2023/09/26 04:38:34;;;;;;;;;;;;;;;;;;5074838;28;19921;-25
2023/09/26 04:41:00;;;;;;;;;;;;;;;;;;5074279;28;20343;-27
2023/09/26 04:43:26;;;;;;;;;;;;;;;;;;5074530;28;19958;-21
2023/09/26 04:45:51;;;;;;;;;;;;;;;;;;5073566;28;19908;-20
2023/09/26 04:48:17;;;;;;;;;;;;;;;;;;5074380;28;19915;-25
2023/09/26 04:50:43;;;;;;;;;;;;;;;;;;5073851;28;19987;-23
2023/09/26 04:53:09;;;;;;;;;;;;;;;;;;5073979;28;19983;-23
2023/09/26 04:55:36;;;;;;;;;;;;;;;;;;5074379;28;19916;-27
2023/09/26 04:58:02;;;;;;;;;;;;;;;;;;5074000;28;19908;-28
2023/09/26 05:00:28;;;;;;;;;;;;;;;;;;5074241;28;19915;-25
2023/09/26 05:02:54;;;;;;;;;;;;;;;;;;5073974;28;19916;-27
2023/09/26 05:05:20;;;;;;;;;;;;;;;;;;5073964;28;19952;-24
2023/09/26 05:07:46;;;;;;;;;;;;;;;;;;5074130;28;19909;-25
2023/09/26 05:10:12;;;;;;;;;;;;;;;;;;5074317;28;19935;-24
2023/09/26 05:12:40;;;;;;;;;;;;;;;;;;5072935;28;20335;-27
2023/09/26 05:15:06;;;;;;;;;;;;;;;;;;5074284;28;19909;-24
2023/09/26 05:17:32;;;;;;;;;;;;;;;;;;5073903;28;19909;-25
2023/09/26 05:19:58;;;;;;;;;;;;;;;;;;5074076;28;19909;-25
2023/09/26 05:22:24;;;;;;;;;;;;;;;;;;5074067;28;19920;-23
2023/09/26 05:24:50;;;;;;;;;;;;;;;;;;5074018;28;19909;-24
2023/09/26 05:27:16;;;;;;;;;;;;;;;;;;5073963;28;20003;-21
2023/09/26 05:29:42;;;;;;;;;;;;;;;;;;5073972;28;19908;-26
2023/09/26 05:32:08;;;;;;;;;;;;;;;;;;5072812;28;20347;-26
2023/09/26 05:34:35;;;;;;;;;;;;;;;;;;5074178;28;20378;-27
2023/09/26 05:37:01;;;;;;;;;;;;;;;;;;5073956;28;20007;-28
2023/09/26 05:39:27;;;;;;;;;;;;;;;;;;5074028;28;19959;-23
2023/09/26 05:41:53;;;;;;;;;;;;;;;;;;5074764;28;19909;-24
2023/09/26 05:44:19;;;;;;;;;;;;;;;;;;5077264;28;19928;-24
2023/09/26 05:46:45;;;;;;;;;;;;;;;;;;5077513;28;19908;-22
2023/09/26 05:49:11;;;;;;;;;;;;;;;;;;5077129;28;19976;-25
2023/09/26 05:51:37;;;;;;;;;;;;;;;;;;5077015;28;19908;-29
2023/09/26 05:54:03;;;;;;;;;;;;;;;;;;5077064;28;19945;-25
2023/09/26 05:56:29;;;;;;;;;;;;;;;;;;5076936;28;19920;-24
2023/09/26 05:58:55;;;;;;;;;;;;;;;;;;5076936;28;19908;-29
2023/09/26 06:01:21;;;;;;;;;;;;;;;;;;5076929;28;19909;-25
2023/09/26 06:03:47;;;;;;;;;;;;;;;;;;5076834;28;19939;-27
2023/09/26 06:06:14;;;;;;;;;;;;;;;;;;5076543;28;20007;-24
2023/09/26 06:08:40;;;;;;;;;;;;;;;;;;5076813;28;19952;-25
2023/09/26 06:11:07;;;;;;;;;;;;;;;;;;5077035;28;19908;-22
2023/09/26 06:13:33;;;;;;;;;;;;;;;;;;5076379;28;19974;-27
2023/09/26 06:15:59;;;;;;;;;;;;;;;;;;5076304;28;19908;-28
2023/09/26 06:18:25;;;;;;;;;;;;;;;;;;5076279;28;19908;-26
2023/09/26 06:20:51;;;;;;;;;;;;;;;;;;5076040;28;20357;-29
2023/09/26 06:23:17;;;;;;;;;;;;;;;;;;5076130;28;19916;-21
2023/09/26 06:25:43;;;;;;;;;;;;;;;;;;5076203;28;20346;-27
2023/09/26 06:28:09;;;;;;;;;;;;;;;;;;5075871;28;19940;-29
2023/09/26 06:30:35;;;;;;;;;;;;;;;;;;5076009;28;20358;-30
2023/09/26 06:33:01;;;;;;;;;;;;;;;;;;5075850;28;19965;-24
2023/09/26 06:35:27;;;;;;;;;;;;;;;;;;5076046;28;19913;-29
2023/09/26 06:37:53;;;;;;;;;;;;;;;;;;5075776;28;20438;-30
2023/09/26 06:40:19;;;;;;;;;;;;;;;;;;5075791;28;19988;-23
2023/09/26 06:42:45;;;;;;;;;;;;;;;;;;5076224;28;19909;-28
2023/09/26 06:45:11;;;;;;;;;;;;;;;;;;5076400;28;19920;-27
2023/09/26 06:47:37;;;;;;;;;;;;;;;;;;5076333;28;19915;-22
2023/09/26 06:50:03;;;;;;;;;;;;;;;;;;5076304;28;20127;-23
2023/09/26 06:52:31;;;;;;;;;;;;;;;;;;5075798;28;19912;-26
2023/09/26 06:54:56;;;;;;;;;;;;;;;;;;5075114;28;19943;-28
2023/09/26 06:57:26;;;;;;;;;;;;;;;;;;5076029;28;20384;-26
2023/09/26 06:59:52;;;;;;;;;;;;;;;;;;5076026;28;19987;-32
2023/09/26 07:02:18;;;;;;;;;;;;;;;;;;5076062;28;19915;-27
2023/09/26 07:04:46;;;;;;;;;;;;;;;;;;5075656;28;19921;-25
2023/09/26 07:07:12;;;;;;;;;;;;;;;;;;5075744;28;19909;-27
2023/09/26 07:09:39;;;;;;;;;;;;;;;;;;5075807;28;19916;-26
2023/09/26 07:12:05;;;;;;;;;;;;;;;;;;5075686;28;20271;-26
2023/09/26 07:14:31;;;;;;;;;;;;;;;;;;5075669;28;19908;-26
2023/09/26 07:16:57;;;;;;;;;;;;;;;;;;5074370;28;19913;-25
2023/09/26 07:19:22;;;;;;;;;;;;;;;;;;5075535;28;19963;-20
2023/09/26 07:21:49;;;;;;;;;;;;;;;;;;5074466;28;19916;-24
2023/09/26 07:24:15;;;;;;;;;;;;;;;;;;5075428;28;20228;-25
2023/09/26 07:26:41;;;;;;;;;;;;;;;;;;5075386;28;19916;-26
2023/09/26 07:29:07;;;;;;;;;;;;;;;;;;5076026;28;19909;-27
2023/09/26 07:31:34;;;;;;;;;;;;;;;;;;5074966;28;19908;-21
2023/09/26 07:34:00;;;;;;;;;;;;;;;;;;5074868;28;19920;-23
2023/09/26 07:36:26;;;;;;;;;;;;;;;;;;5073941;28;19909;-26
2023/09/26 07:38:52;;;;;;;;;;;;;;;;;;5075149;28;19909;-28
2023/09/26 07:41:18;;;;;;;;;;;;;;;;;;5075148;28;20270;-23
2023/09/26 07:43:43;;;;;;;;;;;;;;;;;;5074863;28;19991;-22
2023/09/26 07:46:10;;;;;;;;;;;;;;;;;;5074885;28;20332;-25
2023/09/26 07:48:35;;;;;;;;;;;;;;;;;;5074664;28;19908;-25
2023/09/26 07:51:02;;;;;;;;;;;;;;;;;;5074576;28;19909;-28
2023/09/26 07:53:28;;;;;;;;;;;;;;;;;;5074645;28;20007;-24
2023/09/26 07:55:54;;;;;;;;;;;;;;;;;;5074789;28;20032;-24
2023/09/26 07:58:20;;;;;;;;;;;;;;;;;;5074894;28;19919;-22
2023/09/26 08:00:46;;;;;;;;;;;;;;;;;;5074581;28;19943;-27
2023/09/26 08:03:12;;;;;;;;;;;;;;;;;;5074891;28;19919;-26
2023/09/26 08:05:38;;;;;;;;;;;;;;;;;;5073787;28;19916;-27
2023/09/26 08:08:04;;;;;;;;;;;;;;;;;;5074852;28;19908;-25
2023/09/26 08:10:31;;;;;;;;;;;;;;;;;;5074556;28;20362;-24
2023/09/26 08:12:57;;;;;;;;;;;;;;;;;;5074669;28;19939;-24
2023/09/26 08:15:23;;;;;;;;;;;;;;;;;;5074973;28;19909;-26
2023/09/26 08:17:49;;;;;;;;;;;;;;;;;;5074315;28;19916;-24
2023/09/26 08:20:16;;;;;;;;;;;;;;;;;;5074546;28;19908;-24
2023/09/26 08:22:43;;;;;;;;;;;;;;;;;;5074492;28;19909;-27
2023/09/26 08:25:09;;;;;;;;;;;;;;;;;;5074388;28;20309;-25
2023/09/26 08:27:35;;;;;;;;;;;;;;;;;;5074624;28;19920;-26
2023/09/26 08:30:01;;;;;;;;;;;;;;;;;;5074337;28;19909;-28
2023/09/26 08:32:27;;;;;;;;;;;;;;;;;;5074047;28;19916;-24
2023/09/26 08:34:53;;;;;;;;;;;;;;;;;;5074021;28;19947;-29
2023/09/26 08:37:19;;;;;;;;;;;;;;;;;;5074281;28;20239;-28
2023/09/26 08:39:45;;;;;;;;;;;;;;;;;;5074124;28;20361;-27
2023/09/26 08:42:11;;;;;;;;;;;;;;;;;;5072748;28;19915;-28
2023/09/26 08:44:37;;;;;;;;;;;;;;;;;;5073978;28;19951;-24
2023/09/26 08:47:03;;;;;;;;;;;;;;;;;;5073486;28;19909;-25
2023/09/26 08:49:29;;;;;;;;;;;;;;;;;;5073447;28;20335;-27
2023/09/26 08:51:55;;;;;;;;;;;;;;;;;;5073387;28;19992;-31
2023/09/26 08:54:20;;;;;;;;;;;;;;;;;;5073533;28;19909;-22
2023/09/26 08:56:46;;;;;;;;;;;;;;;;;;5073341;28;19963;-25
2023/09/26 08:59:12;;;;;;;;;;;;;;;;;;5073429;28;19913;-27
2023/09/26 09:01:38;;;;;;;;;;;;;;;;;;5073373;28;19904;-27
2023/09/26 09:04:04;;;;;;;;;;;;;;;;;;5073363;28;19908;-26
2023/09/26 09:06:30;;;;;;;;;;;;;;;;;;5073399;28;19927;-29
2023/09/26 09:08:56;;;;;;;;;;;;;;;;;;5073564;28;19911;-30
2023/09/26 09:11:22;;;;;;;;;;;;;;;;;;5073290;28;20336;-27
2023/09/26 09:13:48;;;;;;;;;;;;;;;;;;5073130;28;20390;-21
2023/09/26 09:16:14;;;;;;;;;;;;;;;;;;5073464;28;19912;-24
2023/09/26 09:18:41;;;;;;;;;;;;;;;;;;5077224;28;20370;-25
2023/09/26 09:21:07;;;;;;;;;;;;;;;;;;5078064;28;19967;-22
2023/09/26 09:23:33;;;;;;;;;;;;;;;;;;5076869;28;19912;-30
2023/09/26 09:25:59;;;;;;;;;;;;;;;;;;5076095;28;19908;-26
2023/09/26 09:28:25;;;;;;;;;;;;;;;;;;5077467;28;20342;-26
2023/09/26 09:30:51;;;;;;;;;;;;;;;;;;5078199;28;20223;-27
2023/09/26 09:33:17;;;;;;;;;;;;;;;;;;5077625;28;19913;-27
2023/09/26 09:35:43;;;;;;;;;;;;;;;;;;5077853;28;19909;-28
2023/09/26 09:38:12;;;;;;;;;;;;;;;;;;5077524;28;19962;-29
2023/09/26 09:40:38;;;;;;;;;;;;;;;;;;5077526;28;19987;-29
2023/09/26 09:43:04;;;;;;;;;;;;;;;;;;5077349;28;20315;-24
2023/09/26 09:45:30;;;;;;;;;;;;;;;;;;5077509;28;19982;-27
2023/09/26 09:47:58;;;;;;;;;;;;;;;;;;5076407;28;19958;-23
2023/09/26 09:50:24;;;;;;;;;;;;;;;;;;5077184;28;19916;-27
2023/09/26 09:52:51;;;;;;;;;;;;;;;;;;5077086;28;19934;-24
2023/09/26 09:55:17;;;;;;;;;;;;;;;;;;5077476;28;19908;-29
2023/09/26 09:57:43;;;;;;;;;;;;;;;;;;5077142;28;20255;-29
2023/09/26 10:00:09;;;;;;;;;;;;;;;;;;5077217;28;19909;-31
2023/09/26 10:02:35;;;;;;;;;;;;;;;;;;5076957;28;20262;-21
2023/09/26 10:05:01;;;;;;;;;;;;;;;;;;5077068;28;19923;-25
2023/09/26 10:07:26;;;;;;;;;;;;;;;;;;5076988;28;19919;-24
2023/09/26 10:09:52;;;;;;;;;;;;;;;;;;5076826;28;20008;-24
2023/09/26 10:12:18;;;;;;;;;;;;;;;;;;5076699;28;19917;-25
2023/09/26 10:14:44;;;;;;;;;;;;;;;;;;5076929;28;19987;-22
2023/09/26 10:17:10;;;;;;;;;;;;;;;;;;5076941;28;19913;-26
2023/09/26 10:19:36;;;;;;;;;;;;;;;;;;5076779;28;19971;-26
2023/09/26 10:22:02;;;;;;;;;;;;;;;;;;5076801;28;19909;-27
2023/09/26 10:24:29;;;;;;;;;;;;;;;;;;5076446;28;20259;-23
2023/09/26 10:26:55;;;;;;;;;;;;;;;;;;5076058;28;19909;-22
2023/09/26 10:29:21;;;;;;;;;;;;;;;;;;5075836;28;19920;-28
2023/09/26 10:31:53;;;;;;;;;;;;;;;;;;5075994;28;19923;-26
2023/09/26 10:34:19;;;;;;;;;;;;;;;;;;5076095;28;19969;-25
2023/09/26 10:36:45;;;;;;;;;;;;;;;;;;5075422;28;19916;-24
2023/09/26 10:39:11;;;;;;;;;;;;;;;;;;5076290;28;20343;-26
2023/09/26 10:41:37;;;;;;;;;;;;;;;;;;5076227;28;20054;-22
2023/09/26 10:44:04;;;;;;;;;;;;;;;;;;5075951;28;20323;-24
2023/09/26 10:46:30;;;;;;;;;;;;;;;;;;5075981;28;19915;-26
2023/09/26 10:48:56;;;;;;;;;;;;;;;;;;5076254;28;19951;-28
2023/09/26 10:51:22;;;;;;;;;;;;;;;;;;5075720;28;19909;-25
2023/09/26 10:53:48;;;;;;;;;;;;;;;;;;5075763;28;19986;-26
2023/09/26 10:56:14;;;;;;;;;;;;;;;;;;5074825;28;19991;-29
2023/09/26 10:58:40;;;;;;;;;;;;;;;;;;5076131;28;19908;-26
2023/09/26 11:01:08;;;;;;;;;;;;;;;;;;5075218;28;20228;-27
2023/09/26 11:03:34;;;;;;;;;;;;;;;;;;5075060;28;20220;-26
2023/09/26 11:06:00;;;;;;;;;;;;;;;;;;5074798;28;19935;-23
2023/09/26 11:08:26;;;;;;;;;;;;;;;;;;5075087;28;19908;-24
2023/09/26 11:10:52;;;;;;;;;;;;;;;;;;5075120;28;20259;-25
2023/09/26 11:13:18;;;;;;;;;;;;;;;;;;5074676;28;19927;-24
2023/09/26 11:15:47;;;;;;;;;;;;;;;;;;5074889;28;19917;-30
2023/09/26 11:18:13;;;;;;;;;;;;;;;;;;5074883;28;19909;-22
2023/09/26 11:20:39;;;;;;;;;;;;;;;;;;5073509;28;19927;-27
2023/09/26 11:23:05;;;;;;;;;;;;;;;;;;5075166;28;20011;-29
2023/09/26 11:25:31;;;;;;;;;;;;;;;;;;5075122;28;20292;-20
2023/09/26 11:27:57;;;;;;;;;;;;;;;;;;5075455;28;20291;-25
2023/09/26 11:30:23;;;;;;;;;;;;;;;;;;5075467;28;19914;-23
2023/09/26 11:32:53;;;;;;;;;;;;;;;;;;5074341;28;20480;-29
2023/09/26 11:35:19;;;;;;;;;;;;;;;;;;5075343;28;19943;-28
2023/09/26 11:37:45;;;;;;;;;;;;;;;;;;5075219;28;20270;-26
2023/09/26 11:40:11;;;;;;;;;;;;;;;;;;5074718;28;20331;-25
2023/09/26 11:42:37;;;;;;;;;;;;;;;;;;5074245;28;19948;-27
2023/09/26 11:45:03;;;;;;;;;;;;;;;;;;5074236;28;19974;-21
2023/09/26 11:47:29;;;;;;;;;;;;;;;;;;5075425;28;19958;-25
2023/09/26 11:49:55;;;;;;;;;;;;;;;;;;5075431;28;19909;-30
2023/09/26 11:52:21;;;;;;;;;;;;;;;;;;5074873;28;20363;-30
2023/09/26 11:54:47;;;;;;;;;;;;;;;;;;5075346;28;19909;-28
2023/09/26 11:57:13;;;;;;;;;;;;;;;;;;5074078;28;19908;-32
2023/09/26 11:59:39;;;;;;;;;;;;;;;;;;5074903;28;19908;-28
2023/09/26 12:02:05;;;;;;;;;;;;;;;;;;5074732;28;19908;-23
2023/09/26 12:04:31;;;;;;;;;;;;;;;;;;5074758;28;19920;-25
2023/09/26 12:06:57;;;;;;;;;;;;;;;;;;5073730;28;20388;-21
2023/09/26 12:09:23;;;;;;;;;;;;;;;;;;5075166;28;20243;-30
2023/09/26 12:11:49;;;;;;;;;;;;;;;;;;5074813;28;19909;-26
2023/09/26 12:14:16;;;;;;;;;;;;;;;;;;5074709;28;20007;-28
2023/09/26 12:16:43;;;;;;;;;;;;;;;;;;5074580;28;19920;-21
2023/09/26 12:19:09;;;;;;;;;;;;;;;;;;5073192;28;19908;-20
2023/09/26 12:21:35;;;;;;;;;;;;;;;;;;5074436;28;19920;-31
2023/09/26 12:24:01;;;;;;;;;;;;;;;;;;5074203;28;19962;-23
2023/09/26 12:26:28;;;;;;;;;;;;;;;;;;5074460;28;20057;-28
2023/09/26 12:28:54;;;;;;;;;;;;;;;;;;5074135;28;19923;-27
2023/09/26 12:31:20;;;;;;;;;;;;;;;;;;5074172;28;19909;-22
2023/09/26 12:33:46;;;;;;;;;;;;;;;;;;5074376;28;20070;-24
2023/09/26 12:36:12;;;;;;;;;;;;;;;;;;5074366;28;19908;-26
2023/09/26 12:38:40;;;;;;;;;;;;;;;;;;5074459;28;19916;-31
2023/09/26 12:41:06;;;;;;;;;;;;;;;;;;5074577;28;20247;-29
2023/09/26 12:43:33;;;;;;;;;;;;;;;;;;5074344;28;19909;-26
2023/09/26 12:45:59;;;;;;;;;;;;;;;;;;5074391;28;19912;-27
2023/09/26 12:48:25;;;;;;;;;;;;;;;;;;5074162;28;20282;-30
2023/09/26 12:50:51;;;;;;;;;;;;;;;;;;5075588;28;19909;-26
2023/09/26 12:53:17;;;;;;;;;;;;;;;;;;5077560;28;20208;-24
2023/09/26 12:55:43;;;;;;;;;;;;;;;;;;5078522;28;19952;-28
2023/09/26 12:58:09;;;;;;;;;;;;;;;;;;5078240;28;20391;-23
2023/09/26 13:00:35;;;;;;;;;;;;;;;;;;5078372;28;19908;-27
2023/09/26 13:03:01;;;;;;;;;;;;;;;;;;5078190;28;19908;-20
2023/09/26 13:05:27;;;;;;;;;;;;;;;;;;5077024;28;19951;-25
2023/09/26 13:07:53;;;;;;;;;;;;;;;;;;5078516;28;20189;-25
2023/09/26 13:10:19;;;;;;;;;;;;;;;;;;5078128;28;19915;-25
2023/09/26 13:12:46;;;;;;;;;;;;;;;;;;5078208;28;19928;-27
2023/09/26 13:15:12;;;;;;;;;;;;;;;;;;5078107;28;20015;-21
2023/09/26 13:17:38;;;;;;;;;;;;;;;;;;5078256;28;19982;-24
2023/09/26 13:20:05;;;;;;;;;;;;;;;;;;5077894;28;20343;-24
2023/09/26 13:22:31;;;;;;;;;;;;;;;;;;5077886;28;19973;-22
2023/09/26 13:24:57;;;;;;;;;;;;;;;;;;5077977;28;19958;-28
2023/09/26 13:27:23;;;;;;;;;;;;;;;;;;5077835;28;19909;-25
2023/09/26 13:29:49;;;;;;;;;;;;;;;;;;5077748;28;19908;-25
2023/09/26 13:32:15;;;;;;;;;;;;;;;;;;5077573;28;19916;-22
2023/09/26 13:34:43;;;;;;;;;;;;;;;;;;5077480;28;19908;-25
2023/09/26 13:37:08;;;;;;;;;;;;;;;;;;5076562;28;20343;-27
2023/09/26 13:39:34;;;;;;;;;;;;;;;;;;5076651;28;19916;-22
2023/09/26 13:42:00;;;;;;;;;;;;;;;;;;5076604;28;19908;-23
2023/09/26 13:44:26;;;;;;;;;;;;;;;;;;5077685;28;20255;-25
2023/09/26 13:46:52;;;;;;;;;;;;;;;;;;5077556;28;19912;-24
2023/09/26 13:49:18;;;;;;;;;;;;;;;;;;5076480;28;19991;-25
2023/09/26 13:51:44;;;;;;;;;;;;;;;;;;5077280;28;19923;-26
2023/09/26 13:54:12;;;;;;;;;;;;;;;;;;5077421;28;19916;-29
2023/09/26 13:56:38;;;;;;;;;;;;;;;;;;5077564;28;19959;-26
2023/09/26 13:59:04;;;;;;;;;;;;;;;;;;5077397;28;19913;-24
2023/09/26 14:01:30;;;;;;;;;;;;;;;;;;5077377;28;19916;-25
2023/09/26 14:03:57;;;;;;;;;;;;;;;;;;5076302;28;19908;-24
2023/09/26 14:06:23;;;;;;;;;;;;;;;;;;5077070;28;19928;-20
2023/09/26 14:08:51;;;;;;;;;;;;;;;;;;5077207;28;20319;-26
2023/09/26 14:11:17;;;;;;;;;;;;;;;;;;5077202;28;20053;-26
2023/09/26 14:13:43;;;;;;;;;;;;;;;;;;5076733;28;20007;-28
2023/09/26 14:16:09;;;;;;;;;;;;;;;;;;5076724;28;19908;-24
2023/09/26 14:18:36;;;;;;;;;;;;;;;;;;5075663;28;19908;-27
2023/09/26 14:21:03;;;;;;;;;;;;;;;;;;5076582;28;19909;-24
2023/09/26 14:23:29;;;;;;;;;;;;;;;;;;5077150;28;19912;-23
2023/09/26 14:25:58;;;;;;;;;;;;;;;;;;5076725;28;19919;-25
2023/09/26 14:28:24;;;;;;;;;;;;;;;;;;5076675;28;19913;-27
2023/09/26 14:30:50;;;;;;;;;;;;;;;;;;5076740;28;19909;-28
2023/09/26 14:33:16;;;;;;;;;;;;;;;;;;5076273;28;19951;-22
2023/09/26 14:35:42;;;;;;;;;;;;;;;;;;5076995;28;19973;-29
2023/09/26 14:38:08;;;;;;;;;;;;;;;;;;5076917;28;19965;-21
2023/09/26 14:40:34;;;;;;;;;;;;;;;;;;5076444;28;20288;-27
2023/09/26 14:43:00;;;;;;;;;;;;;;;;;;5076502;28;19908;-28
2023/09/26 14:45:26;;;;;;;;;;;;;;;;;;5077588;28;20007;-27
2023/09/26 14:47:52;;;;;;;;;;;;;;;;;;5076442;28;19952;-26
2023/09/26 14:50:18;;;;;;;;;;;;;;;;;;5076275;28;19920;-32
2023/09/26 14:52:44;;;;;;;;;;;;;;;;;;5076110;28;20037;-22
2023/09/26 14:55:10;;;;;;;;;;;;;;;;;;5076398;28;19909;-23
2023/09/26 14:57:36;;;;;;;;;;;;;;;;;;5076394;28;20289;-29
2023/09/26 15:00:02;;;;;;;;;;;;;;;;;;5074803;28;19908;-25
2023/09/26 15:02:28;;;;;;;;;;;;;;;;;;5076250;28;19916;-30
2023/09/26 15:04:54;;;;;;;;;;;;;;;;;;5075621;28;19913;-25
2023/09/26 15:07:20;;;;;;;;;;;;;;;;;;5075055;28;19995;-25
2023/09/26 15:09:46;;;;;;;;;;;;;;;;;;5075824;28;19947;-24
2023/09/26 15:12:12;;;;;;;;;;;;;;;;;;5075484;28;19940;-23
2023/09/26 15:14:38;;;;;;;;;;;;;;;;;;5075099;28;19909;-29
2023/09/26 15:17:08;;;;;;;;;;;;;;;;;;5075455;28;19924;-26
2023/09/26 15:19:34;;;;;;;;;;;;;;;;;;5075116;28;20005;-24
2023/09/26 15:22:00;;;;;;;;;;;;;;;;;;5075248;28;19913;-23
2023/09/26 15:24:26;;;;;;;;;;;;;;;;;;5074145;28;20370;-28
2023/09/26 15:26:52;;;;;;;;;;;;;;;;;;5074900;28;20412;-24
2023/09/26 15:29:18;;;;;;;;;;;;;;;;;;5075237;28;19995;-24
2023/09/26 15:31:44;;;;;;;;;;;;;;;;;;5074764;28;19935;-27
2023/09/26 15:34:12;;;;;;;;;;;;;;;;;;5074943;28;19913;-24
2023/09/26 15:36:38;;;;;;;;;;;;;;;;;;5075237;28;19966;-23
2023/09/26 15:39:04;;;;;;;;;;;;;;;;;;5075260;28;20297;-26
2023/09/26 15:41:30;;;;;;;;;;;;;;;;;;5075455;28;19999;-24
2023/09/26 15:43:56;;;;;;;;;;;;;;;;;;5075400;28;20326;-27
2023/09/26 15:46:23;;;;;;;;;;;;;;;;;;5075309;28;20266;-28
2023/09/26 15:48:48;;;;;;;;;;;;;;;;;;5074179;28;20030;-25
2023/09/26 15:51:14;;;;;;;;;;;;;;;;;;5075337;28;20421;-27
2023/09/26 15:53:41;;;;;;;;;;;;;;;;;;5074996;28;20218;-27
2023/09/26 15:56:07;;;;;;;;;;;;;;;;;;5075328;28;19940;-25
2023/09/26 15:58:33;;;;;;;;;;;;;;;;;;5075224;28;20335;-26
2023/09/26 16:00:59;;;;;;;;;;;;;;;;;;5075179;28;20224;-31
2023/09/26 16:03:25;;;;;;;;;;;;;;;;;;5073924;28;19920;-26
2023/09/26 16:05:51;;;;;;;;;;;;;;;;;;5074766;28;20229;-27
2023/09/26 16:08:16;;;;;;;;;;;;;;;;;;5074976;28;19916;-23
2023/09/26 16:10:43;;;;;;;;;;;;;;;;;;5075187;28;19913;-26
2023/09/26 16:13:09;;;;;;;;;;;;;;;;;;5075101;28;19916;-26
2023/09/26 16:15:35;;;;;;;;;;;;;;;;;;5075107;28;19908;-26
2023/09/26 16:18:02;;;;;;;;;;;;;;;;;;5074961;28;19932;-25
2023/09/26 16:20:28;;;;;;;;;;;;;;;;;;5074764;28;19962;-27
2023/09/26 16:22:54;;;;;;;;;;;;;;;;;;5074822;28;19916;-27
2023/09/26 16:25:20;;;;;;;;;;;;;;;;;;5074432;28;19933;-26
2023/09/26 16:27:46;;;;;;;;;;;;;;;;;;5074912;28;20224;-22
2023/09/26 16:30:12;;;;;;;;;;;;;;;;;;5074922;28;19938;-26
2023/09/26 16:32:38;;;;;;;;;;;;;;;;;;5074616;28;19999;-23
2023/09/26 16:35:04;;;;;;;;;;;;;;;;;;5074916;28;20013;-26
2023/09/26 16:37:30;;;;;;;;;;;;;;;;;;5074849;28;19908;-28